createdAt,value
2023-04-21T00:00:08.839Z,2.65
2023-04-21T00:03:10.748Z,2.28
2023-04-21T00:06:12.502Z,3.25
2023-04-21T00:09:15.611Z,3.17
2023-04-21T00:12:17.416Z,2.50
2023-04-21T00:15:19.139Z,2.42
2023-04-21T00:18:21.060Z,2.88
2023-04-21T00:21:22.816Z,3.03
2023-04-21T00:24:26.161Z,2.60
2023-04-21T00:27:27.806Z,2.75
2023-04-21T00:30:29.574Z,2.72
2023-04-21T00:33:32.638Z,2.67
2023-04-21T00:36:34.353Z,3.08
2023-04-21T00:39:37.380Z,2.90
2023-04-21T00:42:39.202Z,2.88
2023-04-21T00:45:41.096Z,2.47
2023-04-21T00:48:42.961Z,3.08
2023-04-21T00:51:44.919Z,2.88
2023-04-21T00:54:48.341Z,3.05
2023-04-21T00:57:52.012Z,2.80
2023-04-21T01:00:53.689Z,2.40
2023-04-21T01:03:57.689Z,2.67
2023-04-21T01:06:59.616Z,2.47
2023-04-21T01:10:03.433Z,2.80
2023-04-21T01:13:05.692Z,2.20
2023-04-21T01:16:10.732Z,2.90
2023-04-21T01:22:18.151Z,2.67
2023-04-21T01:25:22.728Z,2.50
2023-04-21T01:28:25.991Z,2.45
2023-04-21T01:31:27.663Z,2.40
2023-04-21T01:34:29.453Z,2.30
2023-04-21T01:37:33.000Z,2.17
2023-04-21T01:40:35.183Z,2.80
2023-04-21T01:43:37.399Z,2.33
2023-04-21T01:46:39.098Z,2.15
2023-04-21T01:49:41.161Z,2.13
2023-04-21T01:52:44.289Z,2.47
2023-04-21T01:55:46.106Z,2.40
2023-04-21T01:58:47.963Z,2.30
2023-04-21T02:01:50.229Z,2.92
2023-04-21T02:04:52.275Z,2.42
2023-04-21T02:07:55.880Z,2.33
2023-04-21T02:10:57.668Z,1.95
2023-04-21T02:13:59.561Z,2.45
2023-04-21T02:17:03.545Z,2.42
2023-04-21T02:20:06.888Z,2.10
2023-04-21T02:23:10.279Z,2.22
2023-04-21T02:26:12.054Z,1.95
2023-04-21T02:29:14.382Z,2.47
2023-04-21T02:32:25.641Z,2.38
2023-04-21T02:35:28.151Z,2.33
2023-04-21T02:38:31.210Z,2.92
2023-04-21T02:41:32.900Z,2.17
2023-04-21T02:44:37.408Z,2.30
2023-04-21T02:47:39.140Z,2.22
2023-04-21T02:50:44.384Z,2.28
2023-04-21T02:53:47.530Z,2.30
2023-04-21T02:56:49.492Z,2.13
2023-04-21T02:59:51.617Z,2.42
2023-04-21T03:02:53.866Z,2.17
2023-04-21T03:05:58.997Z,2.30
2023-04-21T03:09:02.447Z,1.90
2023-04-21T03:12:04.290Z,2.83
2023-04-21T03:15:06.940Z,2.35
2023-04-21T03:18:10.169Z,2.08
2023-04-21T03:21:11.941Z,2.20
2023-04-21T03:24:15.495Z,2.13
2023-04-21T03:27:17.390Z,2.17
2023-04-21T03:30:19.316Z,1.95
2023-04-21T03:33:21.096Z,2.17
2023-04-21T03:36:22.885Z,1.30
2023-04-21T03:39:26.149Z,1.52
2023-04-21T03:42:30.147Z,1.50
2023-04-21T03:45:32.506Z,1.67
2023-04-21T03:48:34.626Z,1.67
2023-04-21T03:51:36.384Z,1.77
2023-04-21T03:54:39.507Z,1.95
2023-04-21T03:57:42.065Z,1.63
2023-04-21T04:00:44.420Z,2.03
2023-04-21T04:03:46.314Z,1.50
2023-04-21T04:06:48.302Z,1.67
2023-04-21T04:09:51.378Z,1.58
2023-04-21T04:12:53.120Z,1.85
2023-04-21T04:15:55.131Z,1.60
2023-04-21T04:18:56.862Z,1.83
2023-04-21T04:21:59.631Z,2.08
2023-04-21T04:25:02.756Z,2.03
2023-04-21T04:28:05.645Z,1.58
2023-04-21T04:31:07.616Z,2.08
2023-04-21T04:34:09.636Z,1.67
2023-04-21T04:37:13.076Z,1.90
2023-04-21T04:40:16.388Z,1.42
2023-04-21T04:43:18.062Z,1.90
2023-04-21T04:46:20.628Z,1.60
2023-04-21T04:49:24.048Z,1.77
2023-04-21T04:52:26.353Z,1.70
2023-04-21T04:55:29.610Z,1.42
2023-04-21T04:58:31.302Z,1.65
2023-04-21T05:01:53.378Z,1.98
2023-04-21T05:04:55.162Z,1.08
2023-04-21T05:07:57.333Z,1.58
2023-04-21T05:11:00.551Z,1.58
2023-04-21T05:14:05.352Z,2.42
2023-04-21T05:17:07.051Z,1.98
2023-04-21T05:20:09.672Z,2.33
2023-04-21T05:23:11.300Z,2.25
2023-04-21T05:26:14.313Z,2.00
2023-04-21T05:29:16.155Z,1.98
2023-04-21T05:32:17.965Z,1.95
2023-04-21T05:35:19.852Z,1.83
2023-04-21T05:38:21.586Z,2.25
2023-04-21T05:41:24.706Z,2.20
2023-04-21T05:44:26.461Z,2.25
2023-04-21T05:47:28.129Z,2.38
2023-04-21T05:50:34.016Z,1.80
2023-04-21T05:53:35.917Z,1.83
2023-04-21T05:56:39.194Z,2.05
2023-04-21T05:59:40.855Z,1.95
2023-04-21T06:02:42.944Z,1.85
2023-04-21T06:05:44.738Z,1.95
2023-04-21T06:08:46.662Z,2.13
2023-04-21T06:11:50.864Z,2.17
2023-04-21T06:14:52.648Z,2.55
2023-04-21T06:17:57.472Z,1.98
2023-04-21T06:20:59.265Z,2.28
2023-04-21T06:24:01.255Z,2.42
2023-04-21T06:27:09.325Z,2.70
2023-04-21T06:30:36.345Z,2.38
2023-04-21T06:33:42.922Z,2.40
2023-04-21T06:36:51.323Z,1.80
2023-04-21T06:39:53.012Z,2.63
2023-04-21T06:42:56.324Z,2.33
2023-04-21T06:45:58.196Z,2.63
2023-04-21T06:51:10.561Z,2.45
2023-04-21T06:54:12.209Z,3.00
2023-04-21T06:57:15.245Z,3.05
2023-04-21T07:00:17.660Z,3.25
2023-04-21T07:03:19.780Z,3.78
2023-04-21T07:06:22.980Z,3.38
2023-04-21T07:09:24.967Z,3.95
2023-04-21T07:12:26.820Z,3.40
2023-04-21T07:15:28.650Z,3.90
2023-04-21T07:18:30.499Z,3.67
2023-04-21T07:21:36.191Z,3.63
2023-04-21T07:24:38.089Z,3.90
2023-04-21T07:27:39.962Z,3.83
2023-04-21T07:30:41.735Z,3.72
2023-04-21T07:33:43.662Z,3.20
2023-04-21T07:36:47.022Z,3.25
2023-04-21T07:39:48.754Z,3.30
2023-04-21T07:42:53.355Z,3.53
2023-04-21T07:45:55.559Z,3.80
2023-04-21T07:48:57.961Z,3.60
2023-04-21T07:52:01.465Z,3.50
2023-04-21T07:55:23.536Z,3.60
2023-04-21T07:58:25.618Z,3.55
2023-04-21T08:01:27.516Z,2.90
2023-04-21T08:04:29.780Z,3.20
2023-04-21T08:07:33.315Z,2.67
2023-04-21T08:10:35.247Z,2.83
2023-04-21T08:13:37.166Z,3.13
2023-04-21T08:16:40.637Z,3.05
2023-04-21T08:19:42.579Z,4.03
2023-04-21T08:22:48.059Z,2.30
2023-04-21T08:25:50.371Z,3.78
2023-04-21T08:28:52.867Z,2.90
2023-04-21T08:31:54.804Z,3.40
2023-04-21T08:34:56.580Z,2.75
2023-04-21T08:37:59.924Z,3.35
2023-04-21T08:41:03.436Z,3.13
2023-04-21T08:44:06.030Z,3.60
2023-04-21T08:47:10.626Z,3.83
2023-04-21T08:50:14.620Z,3.60
2023-04-21T08:53:18.106Z,3.92
2023-04-21T08:56:19.877Z,3.83
2023-04-21T08:59:21.789Z,4.00
2023-04-21T09:02:23.913Z,4.20
2023-04-21T09:05:27.531Z,4.10
2023-04-21T09:08:32.442Z,4.00
2023-04-21T09:11:34.705Z,4.10
2023-04-21T09:14:36.653Z,3.67
2023-04-21T09:17:38.658Z,3.85
2023-04-21T09:20:41.336Z,3.65
2023-04-21T09:23:46.269Z,3.42
2023-04-21T09:29:52.625Z,3.30
2023-04-21T09:32:58.334Z,3.13
2023-04-21T09:36:03.335Z,3.53
2023-04-21T09:42:15.439Z,3.00
2023-04-21T09:45:32.894Z,3.63
2023-04-21T09:48:43.867Z,3.47
2023-04-21T09:52:05.866Z,3.03
2023-04-21T09:55:12.440Z,3.42
2023-04-21T09:58:20.185Z,3.47
2023-04-21T10:01:25.280Z,3.72
2023-04-21T10:04:28.930Z,2.67
2023-04-21T10:07:31.546Z,3.55
2023-04-21T10:10:35.691Z,3.65
2023-04-21T10:13:38.571Z,3.42
2023-04-21T10:16:42.599Z,3.85
2023-04-21T10:19:52.070Z,3.92
2023-04-21T10:22:58.619Z,2.92
2023-04-21T10:26:10.612Z,3.03
2023-04-21T10:29:12.524Z,3.22
2023-04-21T10:32:32.148Z,2.70
2023-04-21T10:36:03.173Z,2.85
2023-04-21T10:39:05.362Z,2.72
2023-04-21T10:42:24.623Z,3.30
2023-04-21T10:45:26.582Z,2.67
2023-04-21T10:48:28.266Z,2.97
2023-04-21T10:51:32.851Z,3.13
2023-04-21T10:57:45.474Z,3.50
2023-04-21T11:00:53.795Z,3.55
2023-04-21T11:03:58.380Z,3.70
2023-04-21T11:07:08.162Z,4.00
2023-04-21T11:10:11.924Z,3.83
2023-04-21T11:13:15.465Z,4.10
2023-04-21T11:16:17.536Z,4.10
2023-04-21T11:19:24.130Z,3.30
2023-04-21T11:22:26.976Z,3.15
2023-04-21T11:25:30.009Z,3.10
2023-04-21T11:28:33.210Z,3.17
2023-04-21T11:31:36.399Z,3.30
2023-04-21T11:34:41.461Z,2.72
2023-04-21T11:37:43.514Z,3.45
2023-04-21T11:40:46.615Z,3.53
2023-04-21T11:43:50.161Z,3.47
2023-04-21T11:46:52.146Z,3.22
2023-04-21T11:49:56.444Z,3.00
2023-04-21T11:52:58.810Z,3.38
2023-04-21T11:56:01.732Z,3.28
2023-04-21T11:59:08.815Z,3.40
2023-04-21T12:02:14.709Z,3.55
2023-04-21T12:05:16.761Z,3.33
2023-04-21T12:08:18.537Z,3.60
2023-04-21T12:11:20.450Z,3.17
2023-04-21T12:14:25.560Z,3.30
2023-04-21T12:17:36.777Z,3.17
2023-04-21T12:20:38.517Z,3.13
2023-04-21T12:23:40.235Z,2.30
2023-04-21T12:26:42.028Z,3.97
2023-04-21T12:29:46.766Z,2.80
2023-04-21T12:35:50.714Z,3.45
2023-04-21T12:38:52.464Z,3.75
2023-04-21T12:41:54.119Z,4.15
2023-04-21T12:44:57.413Z,3.92
2023-04-21T12:47:59.669Z,4.00
2023-04-21T12:51:01.389Z,4.03
2023-04-21T12:54:03.594Z,4.05
2023-04-21T12:57:06.611Z,2.97
2023-04-21T13:00:14.838Z,3.25
2023-04-21T13:03:16.994Z,4.07
2023-04-21T13:06:18.965Z,4.22
2023-04-21T13:09:20.725Z,4.13
2023-04-21T13:12:22.708Z,3.53
2023-04-21T13:15:25.965Z,4.03
2023-04-21T13:18:27.846Z,3.50
2023-04-21T13:21:29.575Z,3.00
2023-04-21T13:24:31.629Z,3.50
2023-04-21T13:27:34.290Z,3.53
2023-04-21T13:30:37.611Z,3.40
2023-04-21T13:33:39.825Z,2.92
2023-04-21T13:36:42.384Z,3.13
2023-04-21T13:39:44.445Z,3.47
2023-04-21T13:42:46.422Z,3.10
2023-04-21T13:45:52.035Z,2.70
2023-04-21T13:48:54.514Z,3.08
2023-04-21T13:51:56.721Z,3.17
2023-04-21T13:54:58.392Z,2.75
2023-04-21T13:58:01.470Z,2.90
2023-04-21T14:01:04.768Z,2.65
2023-04-21T14:04:07.005Z,3.25
2023-04-21T14:07:12.381Z,3.35
2023-04-21T14:10:14.109Z,2.92
2023-04-21T14:13:27.366Z,2.40
2023-04-21T14:16:36.711Z,2.80
2023-04-21T14:19:41.323Z,3.03
2023-04-21T14:22:43.095Z,2.63
2023-04-21T14:25:44.875Z,2.30
2023-04-21T14:28:46.586Z,2.60
2023-04-21T14:31:50.343Z,1.92
2023-04-21T14:34:53.678Z,2.15
2023-04-21T14:37:55.644Z,2.45
2023-04-21T14:40:57.536Z,2.05
2023-04-21T14:44:00.410Z,2.50
2023-04-21T14:47:09.755Z,1.55
2023-04-21T14:50:12.755Z,2.00
2023-04-21T14:53:14.623Z,2.20
2023-04-21T14:56:16.614Z,2.30
2023-04-21T14:59:18.668Z,2.05
2023-04-21T15:02:22.907Z,2.20
2023-04-21T15:05:25.139Z,2.10
2023-04-21T15:08:27.735Z,2.35
2023-04-21T15:11:29.768Z,2.42
2023-04-21T15:14:31.969Z,2.42
2023-04-21T15:17:35.106Z,1.73
2023-04-21T15:20:44.346Z,4.65
2023-04-21T15:23:47.431Z,2.90
2023-04-21T15:26:49.271Z,2.03
2023-04-21T15:29:51.194Z,2.72
2023-04-21T15:32:54.360Z,2.17
2023-04-21T15:35:56.074Z,18.00
2023-04-21T15:38:58.594Z,33.70
2023-04-21T15:42:01.502Z,21.83
2023-04-21T15:45:04.315Z,2.70
2023-04-21T15:48:07.494Z,2.20
2023-04-21T15:51:10.841Z,3.47
2023-04-21T15:54:12.617Z,1.90
2023-04-21T15:57:14.894Z,1.70
2023-04-21T16:00:17.561Z,2.00
2023-04-21T16:03:21.473Z,1.13
2023-04-21T16:09:27.112Z,1.70
2023-04-21T16:12:29.094Z,3.17
2023-04-21T16:15:31.237Z,6.07
2023-04-21T16:18:34.536Z,1.90
2023-04-21T16:21:36.356Z,2.13
2023-04-21T16:24:38.487Z,2.35
2023-04-21T16:27:40.720Z,10.00
2023-04-21T16:30:44.028Z,10.02
2023-04-21T16:33:47.623Z,2.58
2023-04-21T16:36:49.365Z,1.50
2023-04-21T16:39:51.319Z,1.77
2023-04-21T16:42:53.380Z,1.77
2023-04-21T16:45:55.371Z,2.00
2023-04-21T16:48:58.730Z,7.88
2023-04-21T16:52:00.545Z,1.77
2023-04-21T16:55:02.683Z,2.17
2023-04-21T16:58:04.512Z,1.70
2023-04-21T17:01:07.649Z,1.83
2023-04-21T17:04:13.979Z,0.70
2023-04-21T17:07:16.228Z,0.60
2023-04-21T17:10:18.325Z,0.22
2023-04-21T17:13:20.216Z,0.88
2023-04-21T17:16:22.140Z,2.42
2023-04-21T17:19:26.192Z,0.20
2023-04-21T17:22:27.903Z,0.55
2023-04-21T17:25:29.908Z,0.32
2023-04-21T17:28:32.149Z,0.30
2023-04-21T17:31:34.030Z,0.32
2023-04-21T17:34:37.364Z,0.28
2023-04-21T17:37:39.764Z,0.25
2023-04-21T17:40:41.465Z,0.20
2023-04-21T17:43:43.313Z,0.15
2023-04-21T17:46:45.422Z,0.30
2023-04-21T17:49:48.649Z,0.10
2023-04-21T17:52:50.577Z,0.30
2023-04-21T17:55:52.420Z,0.20
2023-04-21T17:58:54.277Z,0.35
2023-04-21T18:01:57.893Z,0.45
2023-04-21T18:05:04.269Z,0.20
2023-04-21T18:08:06.289Z,0.30
2023-04-21T18:11:09.193Z,0.40
2023-04-21T18:14:10.924Z,0.30
2023-04-21T18:17:14.153Z,0.30
2023-04-21T18:20:18.747Z,0.30
2023-04-21T18:23:21.346Z,0.40
2023-04-21T18:26:23.155Z,0.28
2023-04-21T18:29:25.007Z,0.40
2023-04-21T18:32:26.720Z,0.40
2023-04-21T18:35:31.929Z,0.38
2023-04-21T18:38:33.822Z,0.40
2023-04-21T18:41:35.762Z,0.30
2023-04-21T18:44:39.424Z,0.30
2023-04-21T18:47:41.434Z,0.35
2023-04-21T18:50:44.710Z,0.30
2023-04-21T18:53:46.641Z,0.22
2023-04-21T18:56:48.486Z,0.30
2023-04-21T18:59:50.330Z,0.28
2023-04-21T19:02:52.281Z,0.40
2023-04-21T19:05:55.913Z,0.50
2023-04-21T19:08:57.949Z,0.30
2023-04-21T19:11:59.674Z,0.30
2023-04-21T19:15:02.252Z,0.40
2023-04-21T19:18:04.482Z,0.20
2023-04-21T19:21:10.438Z,0.90
2023-04-21T19:24:12.383Z,0.60
2023-04-21T19:27:14.665Z,0.60
2023-04-21T19:30:16.413Z,0.45
2023-04-21T19:33:18.193Z,0.60
2023-04-21T19:36:21.546Z,0.75
2023-04-21T19:39:23.513Z,0.70
2023-04-21T19:42:25.353Z,1.05
2023-04-21T19:45:27.410Z,0.80
2023-04-21T19:48:29.266Z,0.77
2023-04-21T19:51:32.844Z,0.70
2023-04-21T19:54:34.631Z,0.70
2023-04-21T19:57:36.924Z,0.57
2023-04-21T20:00:38.828Z,0.60
2023-04-21T20:03:40.794Z,0.57
2023-04-21T20:06:44.321Z,0.40
2023-04-21T20:09:46.029Z,0.52
2023-04-21T20:12:47.916Z,0.60
2023-04-21T20:15:49.786Z,0.40
2023-04-21T20:18:51.841Z,0.52
2023-04-21T20:21:54.944Z,0.43
2023-04-21T20:24:57.946Z,0.40
2023-04-21T20:27:59.797Z,0.20
2023-04-21T20:31:01.645Z,0.63
2023-04-21T20:34:03.684Z,0.80
2023-04-21T20:37:07.766Z,0.80
2023-04-21T20:40:11.798Z,0.60
2023-04-21T20:43:15.176Z,0.57
2023-04-21T20:46:17.736Z,0.88
2023-04-21T20:49:19.550Z,0.70
2023-04-21T20:52:22.854Z,0.85
2023-04-21T20:55:24.799Z,0.80
2023-04-21T20:58:26.541Z,1.00
2023-04-21T21:01:30.541Z,0.75
2023-04-21T21:04:32.767Z,0.73
2023-04-21T21:07:35.869Z,0.90
2023-04-21T21:10:37.642Z,0.90
2023-04-21T21:13:39.311Z,0.90
2023-04-21T21:16:41.407Z,1.20
2023-04-21T21:19:43.762Z,1.30
2023-04-21T21:22:47.088Z,1.20
2023-04-21T21:25:50.542Z,1.20
2023-04-21T21:28:52.464Z,1.13
2023-04-21T21:31:54.334Z,1.05
2023-04-21T21:34:56.149Z,1.25
2023-04-21T21:37:59.309Z,1.40
2023-04-21T21:41:03.322Z,1.10
2023-04-21T21:44:05.367Z,1.40
2023-04-21T21:47:07.448Z,0.70
2023-04-21T21:50:11.196Z,0.80
2023-04-21T21:53:14.430Z,0.90
2023-04-21T21:56:16.527Z,0.90
2023-04-21T21:59:18.223Z,0.82
2023-04-21T22:02:20.403Z,1.20
2023-04-21T22:05:22.227Z,1.38
2023-04-21T22:08:25.986Z,1.00
2023-04-21T22:11:27.856Z,1.20
2023-04-21T22:14:30.119Z,1.10
2023-04-21T22:17:34.506Z,1.20
2023-04-21T22:20:36.688Z,1.10
2023-04-21T22:23:40.068Z,0.80
2023-04-21T22:26:47.157Z,0.82
2023-04-21T22:29:49.129Z,0.63
2023-04-21T22:32:50.907Z,0.70
2023-04-21T22:35:52.640Z,0.82
2023-04-21T22:38:56.230Z,0.65
2023-04-21T22:41:58.253Z,0.70
2023-04-21T22:45:01.630Z,0.50
2023-04-21T22:48:03.613Z,0.65
2023-04-21T22:51:06.224Z,0.65
2023-04-21T22:54:09.221Z,0.88
2023-04-21T22:57:11.490Z,0.90
2023-04-21T23:00:16.478Z,0.70
2023-04-21T23:03:18.293Z,0.70
2023-04-21T23:06:20.206Z,0.70
2023-04-21T23:09:23.715Z,0.80
2023-04-21T23:12:25.742Z,0.70
2023-04-21T23:15:27.775Z,0.65
2023-04-21T23:21:10.817Z,0.63
2023-04-21T23:24:12.807Z,0.70
2023-04-21T23:27:14.670Z,0.80
2023-04-21T23:30:19.327Z,0.90
2023-04-21T23:33:21.370Z,1.10
2023-04-21T23:36:24.417Z,1.10
2023-04-21T23:39:26.314Z,0.75
2023-04-21T23:42:28.147Z,1.10
2023-04-21T23:45:30.472Z,0.80
2023-04-21T23:48:32.273Z,0.77
2023-04-21T23:51:35.574Z,0.68
2023-04-21T23:54:37.359Z,0.60
2023-04-21T23:57:39.272Z,0.80
